Flight Track Log - Related Links

Times and Time Zones

All times are in EDT time to prevent confusion due to time zone crossing. See the N775NC flight status page for this flight to view local times or setup timezone preferences in your user account.

Time Position Orientation Groundspeed Altitude Reporting Facility
EDT Latitude Longitude Course Direction KTS MPH feet Rate Location/Type
04:57PM 33.5881 -86.7044 62° Northeast 197 227 2,700  Level Atlanta Center
04:58PM 33.5872 -86.6422 91° East 236 272 3,800 1,688 Climbing Atlanta Center
04:59PM 33.5300 -86.5831 139° Southeast 274 315 6,300 2,301 Climbing Atlanta Center
05:00PM 33.5793 -86.3578 90° East  Level Estimated
05:00PM 33.4508 -86.5833 180° South 266 306 8,900  Level Atlanta Center
05:01PM 33.5830 -86.2592 90° East  Level Estimated
05:01PM 33.3678 -86.5633 169° South 282 325 10,600  Level Atlanta Center
05:02PM 33.5866 -86.1605 98° East  Level Estimated
05:02PM 33.2878 -86.4817 140° Southeast 311 358 12,100  Level Atlanta Center
05:03PM 33.2675 -86.3469 100° East 339 390 13,400 1,500 Climbing Atlanta Center
05:04PM 33.2533 -86.2025 97° East 382 440 15,100 800 Climbing Atlanta Center
05:05PM 33.2372 -86.0556 97° East 416 479 15,000 -50 Descending Atlanta Center
05:06PM 33.2436 -85.9092 87° East 435 501 15,000  Level Atlanta Center
05:07PM 33.2522 -85.7578 86° East 444 511 15,000  Level Atlanta Center
05:08PM 33.2625 -85.6089 85° East 444 511 15,000 -150 Level Atlanta Center
05:09PM 33.2747 -85.4650 84° East 449 517 14,700 -1,100 Descending Atlanta Center
05:10PM 33.2867 -85.3236 84° East 435 501 12,800 -1,350 Descending Atlanta Center
05:11PM 33.3086 -85.1972 78° East 409 471 12,000 -450 Descending Atlanta Center
05:12PM 33.3306 -85.0931 76° East 347 399 11,900 -1,050 Descending Atlanta Center
05:13PM 33.3439 -84.9936 81° East 314 361 9,900 -1,750 Descending Atlanta Center
05:14PM 33.3572 -84.8994 80° East 293 337 8,400 -1,600 Descending Atlanta Center
05:15PM 33.3847 -84.8125 69° East 284 327 6,700 -1,450 Descending Atlanta Center
05:16PM 33.4475 -84.7858 20° North 243 280 5,500 -1,150 Descending Atlanta Center
05:17PM 33.5208 -84.7614 16° North 252 290 4,400 -1,150 Descending Atlanta Center
05:18PM 33.5878 -84.7394 15° North 252 290 3,200 -700 Descending Atlanta Center
05:19PM 33.6256 -84.6975 43° Northeast 179 206 3,000 -120 Descending Atlanta Center
05:20PM 33.6333 -84.6500 79° East 189 217 3,000  Level Atlanta TRACON
05:21PM 33.6333 -84.5833 90° East 185 213 3,000 -400 Level Atlanta TRACON
05:22PM 33.6333 -84.5167 90° East 177 204 2,200 -800 Descending Atlanta TRACON
05:23PM 33.6333 -84.4667 90° East 152 175 1,400 -800 Descending Atlanta TRACON

Login

Don't have an account? Register now (free) for customized features, flight alerts, and more!